createdAt,value
2018-12-08T00:00:27.249Z,9.70
2018-12-08T00:01:30.679Z,9.70
2018-12-08T00:02:34.122Z,9.70
2018-12-08T00:03:37.664Z,9.70
2018-12-08T00:04:41.138Z,9.70
2018-12-08T00:05:44.634Z,9.70
2018-12-08T00:06:48.123Z,9.70
2018-12-08T00:07:51.544Z,9.70
2018-12-08T00:08:54.995Z,9.70
2018-12-08T00:09:58.510Z,9.60
2018-12-08T00:11:01.925Z,9.70
2018-12-08T00:12:05.426Z,9.70
2018-12-08T00:13:08.823Z,9.70
2018-12-08T00:14:12.301Z,9.70
2018-12-08T00:15:15.730Z,9.70
2018-12-08T00:16:19.234Z,9.70
2018-12-08T00:17:22.735Z,9.70
2018-12-08T00:18:26.181Z,9.70
2018-12-08T00:19:29.827Z,9.70
2018-12-08T00:20:33.225Z,9.80
2018-12-08T00:21:36.653Z,9.80
2018-12-08T00:22:40.110Z,9.80
2018-12-08T00:23:43.551Z,9.80
2018-12-08T00:24:47.239Z,9.80
2018-12-08T00:25:50.720Z,9.80
2018-12-08T00:26:54.178Z,9.80
2018-12-08T00:27:57.647Z,9.80
2018-12-08T00:29:01.156Z,9.80
2018-12-08T00:30:14.651Z,9.80
2018-12-08T00:31:45.250Z,9.80
2018-12-08T00:32:48.675Z,9.80
2018-12-08T00:33:52.087Z,9.80
2018-12-08T00:34:55.555Z,9.80
2018-12-08T00:35:58.958Z,9.80
2018-12-08T00:37:02.373Z,9.70
2018-12-08T00:38:05.770Z,9.70
2018-12-08T00:39:09.144Z,9.70
2018-12-08T00:40:12.626Z,9.80
2018-12-08T00:41:16.104Z,9.80
2018-12-08T00:42:19.534Z,9.80
2018-12-08T00:43:23.062Z,9.70
2018-12-08T00:44:26.672Z,9.70
2018-12-08T00:45:30.044Z,9.70
2018-12-08T00:46:33.462Z,9.70
2018-12-08T00:47:36.939Z,9.70
2018-12-08T00:48:40.424Z,9.70
2018-12-08T00:49:43.833Z,9.70
2018-12-08T00:50:47.211Z,9.70
2018-12-08T00:51:50.603Z,9.70
2018-12-08T00:52:54.095Z,9.70
2018-12-08T00:54:01.706Z,9.70
2018-12-08T00:55:05.273Z,9.70
2018-12-08T00:56:08.797Z,9.70
2018-12-08T00:57:12.238Z,9.70
2018-12-08T00:58:15.653Z,9.80
2018-12-08T00:59:19.038Z,9.80
2018-12-08T01:00:22.463Z,9.80
2018-12-08T01:01:25.895Z,9.80
2018-12-08T01:02:29.563Z,9.80
2018-12-08T01:03:32.984Z,9.80
2018-12-08T01:04:36.487Z,9.80
2018-12-08T01:05:39.861Z,9.80
2018-12-08T01:06:43.319Z,9.80
2018-12-08T01:07:46.761Z,9.80
2018-12-08T01:08:50.254Z,9.80
2018-12-08T01:09:53.792Z,9.80
2018-12-08T01:10:57.239Z,9.80
2018-12-08T01:12:00.731Z,9.70
2018-12-08T01:13:04.221Z,9.70
2018-12-08T01:14:07.640Z,9.70
2018-12-08T01:15:11.006Z,9.70
2018-12-08T01:16:14.422Z,9.70
2018-12-08T01:17:17.994Z,9.70
2018-12-08T01:18:21.380Z,9.70
2018-12-08T01:19:24.806Z,9.60
2018-12-08T01:20:28.230Z,9.60
2018-12-08T01:21:31.618Z,9.60
2018-12-08T01:22:35.044Z,9.60
2018-12-08T01:23:38.582Z,9.60
2018-12-08T01:24:44.126Z,9.60
2018-12-08T01:25:47.593Z,9.60
2018-12-08T01:26:51.561Z,9.60
2018-12-08T01:27:54.990Z,9.50
2018-12-08T01:28:58.619Z,9.50
2018-12-08T01:30:02.017Z,9.50
2018-12-08T01:31:05.429Z,9.50
2018-12-08T01:32:08.829Z,9.50
2018-12-08T01:33:12.211Z,9.50
2018-12-08T01:34:15.587Z,9.50
2018-12-08T01:35:19.018Z,9.50
2018-12-08T01:36:22.439Z,9.50
2018-12-08T01:37:25.885Z,9.50
2018-12-08T01:38:29.310Z,9.50
2018-12-08T01:39:32.702Z,9.50
2018-12-08T01:40:36.126Z,9.40
2018-12-08T01:41:39.531Z,9.40
2018-12-08T01:42:45.011Z,9.40
2018-12-08T01:43:48.483Z,9.40
2018-12-08T01:44:51.918Z,9.40
2018-12-08T01:45:55.558Z,9.40
2018-12-08T01:46:59.002Z,9.40
2018-12-08T01:48:02.576Z,9.40
2018-12-08T01:49:05.955Z,9.40
2018-12-08T01:50:09.346Z,9.50
2018-12-08T01:51:12.765Z,9.40
2018-12-08T01:52:16.226Z,9.40
2018-12-08T01:53:19.694Z,9.40
2018-12-08T01:54:23.288Z,9.50
2018-12-08T01:55:26.663Z,9.50
2018-12-08T01:56:30.052Z,9.50
2018-12-08T01:57:33.469Z,9.50
2018-12-08T01:58:36.923Z,9.50
2018-12-08T01:59:40.333Z,9.50
2018-12-08T02:00:43.967Z,9.50
2018-12-08T02:01:47.463Z,9.50
2018-12-08T02:02:50.853Z,9.50
2018-12-08T02:03:54.287Z,9.50
2018-12-08T02:04:57.678Z,9.50
2018-12-08T02:06:01.165Z,9.50
2018-12-08T02:07:04.594Z,9.50
2018-12-08T02:08:08.051Z,9.40
2018-12-08T02:09:11.511Z,9.40
2018-12-08T02:10:14.906Z,9.50
2018-12-08T02:11:24.906Z,9.50
2018-12-08T02:12:24.246Z,9.50
2018-12-08T02:13:27.647Z,9.40
2018-12-08T02:14:31.118Z,9.40
2018-12-08T02:15:34.550Z,9.40
2018-12-08T02:16:37.973Z,9.40
2018-12-08T02:17:41.383Z,9.40
2018-12-08T02:18:44.785Z,9.40
2018-12-08T02:19:48.258Z,9.40
2018-12-08T02:20:51.699Z,9.40
2018-12-08T02:21:55.114Z,9.50
2018-12-08T02:22:58.538Z,9.50
2018-12-08T02:24:01.995Z,9.50
2018-12-08T02:25:05.652Z,9.50
2018-12-08T02:26:09.490Z,9.50
2018-12-08T02:27:13.135Z,9.50
2018-12-08T02:28:16.542Z,9.50
2018-12-08T02:29:19.937Z,9.50
2018-12-08T02:30:23.365Z,9.50
2018-12-08T02:31:26.782Z,9.50
2018-12-08T02:32:30.247Z,9.50
2018-12-08T02:33:33.839Z,9.50
2018-12-08T02:34:37.476Z,9.50
2018-12-08T02:35:40.903Z,9.50
2018-12-08T02:36:44.712Z,9.50
2018-12-08T02:37:48.161Z,9.50
2018-12-08T02:38:51.612Z,9.50
2018-12-08T02:39:55.398Z,9.50
2018-12-08T02:40:58.907Z,9.50
2018-12-08T02:42:02.478Z,9.50
2018-12-08T02:43:05.987Z,9.50
2018-12-08T02:44:09.446Z,9.50
2018-12-08T02:45:12.934Z,9.50
2018-12-08T02:46:16.573Z,9.50
2018-12-08T02:47:20.407Z,9.50
2018-12-08T02:48:23.821Z,9.40
2018-12-08T02:49:27.241Z,9.40
2018-12-08T02:50:30.694Z,9.40
2018-12-08T02:51:34.090Z,9.40
2018-12-08T02:52:37.514Z,9.40
2018-12-08T02:53:40.947Z,9.40
2018-12-08T02:54:44.344Z,9.40
2018-12-08T02:55:47.745Z,9.40
2018-12-08T02:56:51.162Z,9.40
2018-12-08T02:57:54.598Z,9.40
2018-12-08T02:58:58.054Z,9.40
2018-12-08T03:00:01.502Z,9.40
2018-12-08T03:01:05.007Z,9.40
2018-12-08T03:02:08.470Z,9.40
2018-12-08T03:03:12.114Z,9.40
2018-12-08T03:04:15.547Z,9.40
2018-12-08T03:05:18.942Z,9.40
2018-12-08T03:06:22.357Z,9.40
2018-12-08T03:07:25.786Z,9.40
2018-12-08T03:08:29.415Z,9.40
2018-12-08T03:09:32.813Z,9.40
2018-12-08T03:10:36.269Z,9.40
2018-12-08T03:11:39.779Z,9.40
2018-12-08T03:12:43.234Z,9.40
2018-12-08T03:13:46.640Z,9.40
2018-12-08T03:14:50.033Z,9.40
2018-12-08T03:15:53.466Z,9.40
2018-12-08T03:16:57.018Z,9.50
2018-12-08T03:18:00.390Z,9.50
2018-12-08T03:19:03.878Z,9.50
2018-12-08T03:20:07.315Z,9.50
2018-12-08T03:21:10.745Z,9.50
2018-12-08T03:22:14.113Z,9.50
2018-12-08T03:23:17.489Z,9.50
2018-12-08T03:24:20.870Z,9.50
2018-12-08T03:25:24.260Z,9.50
2018-12-08T03:26:27.663Z,9.50
2018-12-08T03:27:31.078Z,9.50
2018-12-08T03:28:34.471Z,9.50
2018-12-08T03:29:37.890Z,9.60
2018-12-08T03:30:41.402Z,9.60
2018-12-08T03:31:44.903Z,9.50
2018-12-08T03:32:48.405Z,9.50
2018-12-08T03:33:51.803Z,9.50
2018-12-08T03:34:55.186Z,9.50
2018-12-08T03:35:58.568Z,9.50
2018-12-08T03:37:02.001Z,9.50
2018-12-08T03:38:05.379Z,9.50
2018-12-08T03:39:09.151Z,9.60
2018-12-08T03:40:12.552Z,9.60
2018-12-08T03:41:15.941Z,9.50
2018-12-08T03:42:19.385Z,9.50
2018-12-08T03:43:22.926Z,9.50
2018-12-08T03:44:26.311Z,9.50
2018-12-08T03:45:29.678Z,9.50
2018-12-08T03:46:33.118Z,9.50
2018-12-08T03:47:36.520Z,9.60
2018-12-08T03:48:39.902Z,9.60
2018-12-08T03:49:43.337Z,9.60
2018-12-08T03:50:46.721Z,9.70
2018-12-08T03:51:50.107Z,9.70
2018-12-08T03:52:53.678Z,9.70
2018-12-08T03:53:57.137Z,9.70
2018-12-08T03:55:00.554Z,9.60
2018-12-08T03:56:04.024Z,9.70
2018-12-08T03:57:07.414Z,9.70
2018-12-08T03:58:10.783Z,9.70
2018-12-08T03:59:14.175Z,9.70
2018-12-08T04:00:17.582Z,9.80
2018-12-08T04:01:20.978Z,9.80
2018-12-08T04:02:24.395Z,9.80
2018-12-08T04:03:27.909Z,9.80
2018-12-08T04:04:31.302Z,9.80
2018-12-08T04:05:34.782Z,9.80
2018-12-08T04:06:38.164Z,9.80
2018-12-08T04:07:41.575Z,9.80
2018-12-08T04:08:44.970Z,9.80
2018-12-08T04:09:48.367Z,9.80
2018-12-08T04:10:51.850Z,9.80
2018-12-08T04:11:55.293Z,9.90
2018-12-08T04:12:58.714Z,9.90
2018-12-08T04:14:02.107Z,9.90
2018-12-08T04:15:06.299Z,9.90
2018-12-08T04:16:09.691Z,9.90
2018-12-08T04:17:13.088Z,9.90
2018-12-08T04:18:16.498Z,9.90
2018-12-08T04:19:19.887Z,9.90
2018-12-08T04:20:23.275Z,10.00
2018-12-08T04:21:26.653Z,10.00
2018-12-08T04:22:30.144Z,10.00
2018-12-08T04:23:33.607Z,10.00
2018-12-08T04:24:37.083Z,10.00
2018-12-08T04:25:40.464Z,10.00
2018-12-08T04:26:43.901Z,10.00
2018-12-08T04:27:47.288Z,10.00
2018-12-08T04:28:50.728Z,10.00
2018-12-08T04:29:54.103Z,10.00
2018-12-08T04:30:57.500Z,10.00
2018-12-08T04:32:00.874Z,10.00
2018-12-08T04:33:04.274Z,10.00
2018-12-08T04:34:07.659Z,10.00
2018-12-08T04:35:11.150Z,10.00
2018-12-08T04:36:14.545Z,10.00
2018-12-08T04:37:17.933Z,10.00
2018-12-08T04:38:21.330Z,10.00
2018-12-08T04:39:24.713Z,10.10
2018-12-08T04:40:28.100Z,10.10
2018-12-08T04:41:31.621Z,10.10
2018-12-08T04:42:35.016Z,10.10
2018-12-08T04:43:38.451Z,10.10
2018-12-08T04:44:41.854Z,10.10
2018-12-08T04:45:45.271Z,10.10
2018-12-08T04:46:48.675Z,10.10
2018-12-08T04:47:52.192Z,10.10
2018-12-08T04:48:55.591Z,10.00
2018-12-08T04:49:58.986Z,10.00
2018-12-08T04:51:02.380Z,10.00
2018-12-08T04:52:05.792Z,10.00
2018-12-08T04:53:09.175Z,10.00
2018-12-08T04:54:12.577Z,10.00
2018-12-08T04:55:15.954Z,10.00
2018-12-08T04:56:19.395Z,10.00
2018-12-08T04:57:22.782Z,10.10
2018-12-08T04:58:26.171Z,10.10
2018-12-08T04:59:29.583Z,10.10
2018-12-08T05:00:32.978Z,10.10
2018-12-08T05:01:36.373Z,10.10
2018-12-08T05:02:39.741Z,10.10
2018-12-08T05:03:43.135Z,10.10
2018-12-08T05:04:46.607Z,10.10
2018-12-08T05:05:50.027Z,10.10
2018-12-08T05:06:53.430Z,10.10
2018-12-08T05:07:56.825Z,10.10
2018-12-08T05:09:00.202Z,10.10
2018-12-08T05:10:03.625Z,10.10
2018-12-08T05:11:07.028Z,10.10
2018-12-08T05:12:10.468Z,10.10
2018-12-08T05:13:13.919Z,10.10
2018-12-08T05:14:17.346Z,10.10
2018-12-08T05:15:20.758Z,10.10
2018-12-08T05:16:24.137Z,10.10
2018-12-08T05:17:27.518Z,10.10
2018-12-08T05:18:30.951Z,10.10
2018-12-08T05:19:34.395Z,10.10
2018-12-08T05:20:37.809Z,10.10
2018-12-08T05:21:41.206Z,10.10
2018-12-08T05:22:44.600Z,10.10
2018-12-08T05:23:47.987Z,10.00
2018-12-08T05:24:51.511Z,10.00
2018-12-08T05:25:54.926Z,10.00
2018-12-08T05:26:58.319Z,10.00
2018-12-08T05:28:01.715Z,10.00
2018-12-08T05:29:05.120Z,10.00
2018-12-08T05:30:08.533Z,10.00
2018-12-08T05:31:11.943Z,10.00
2018-12-08T05:32:15.345Z,10.00
2018-12-08T05:33:18.734Z,10.00
2018-12-08T05:34:22.123Z,10.00
2018-12-08T05:35:25.521Z,10.00
2018-12-08T05:36:28.903Z,10.00
2018-12-08T05:37:32.307Z,10.00
2018-12-08T05:38:35.687Z,10.00
2018-12-08T05:39:39.079Z,10.00
2018-12-08T05:40:42.481Z,10.00
2018-12-08T05:41:45.852Z,10.00
2018-12-08T05:42:49.258Z,10.00
2018-12-08T05:43:52.646Z,10.00
2018-12-08T05:44:56.034Z,10.00
2018-12-08T05:45:59.409Z,10.00
2018-12-08T05:47:02.805Z,10.00
2018-12-08T05:48:06.213Z,10.00
2018-12-08T05:49:09.593Z,10.00
2018-12-08T05:50:12.982Z,10.00
2018-12-08T05:51:16.370Z,10.00
2018-12-08T05:52:19.783Z,10.00
2018-12-08T05:53:23.175Z,10.10
2018-12-08T05:54:26.551Z,10.00
2018-12-08T05:55:29.988Z,10.10
2018-12-08T05:56:33.384Z,10.10
2018-12-08T05:57:36.807Z,10.10
2018-12-08T05:58:40.242Z,10.00
2018-12-08T05:59:43.626Z,10.10
2018-12-08T06:00:47.043Z,10.10
2018-12-08T06:01:50.513Z,10.10
2018-12-08T06:02:53.942Z,10.10
2018-12-08T06:03:57.327Z,10.00
2018-12-08T06:05:00.743Z,10.10
2018-12-08T06:06:04.158Z,10.10
2018-12-08T06:07:07.565Z,10.10
2018-12-08T06:08:10.955Z,10.10
2018-12-08T06:09:14.347Z,10.10
2018-12-08T06:10:17.744Z,10.10
2018-12-08T06:11:21.169Z,10.10
2018-12-08T06:12:24.570Z,10.10
2018-12-08T06:13:27.951Z,10.10
2018-12-08T06:14:31.339Z,10.10
2018-12-08T06:15:34.731Z,10.10
2018-12-08T06:16:38.226Z,10.10
2018-12-08T06:17:41.615Z,10.10
2018-12-08T06:18:45.015Z,10.10
2018-12-08T06:19:48.432Z,10.10
2018-12-08T06:20:51.816Z,10.10
2018-12-08T06:21:55.209Z,10.10
2018-12-08T06:22:58.606Z,10.10
2018-12-08T06:24:02.144Z,10.10
2018-12-08T06:25:07.127Z,10.10
2018-12-08T06:26:19.099Z,10.10
2018-12-08T06:27:36.679Z,10.10
2018-12-08T06:28:41.579Z,10.10
2018-12-08T06:29:45.801Z,10.10
2018-12-08T06:30:49.261Z,10.10
2018-12-08T06:31:52.798Z,10.10
2018-12-08T06:32:56.193Z,10.10
2018-12-08T06:33:59.579Z,10.10
2018-12-08T06:35:03.011Z,10.10
2018-12-08T06:36:06.427Z,10.10
2018-12-08T06:37:09.824Z,10.10
2018-12-08T06:38:13.211Z,10.10
2018-12-08T06:39:16.610Z,10.10
2018-12-08T06:40:20.043Z,10.10
2018-12-08T06:41:23.430Z,10.10
2018-12-08T06:42:26.841Z,10.10
2018-12-08T06:43:30.306Z,10.10
2018-12-08T06:44:33.677Z,10.10
2018-12-08T06:45:37.122Z,10.10
2018-12-08T06:46:40.506Z,10.10
2018-12-08T06:47:43.982Z,10.00
2018-12-08T06:48:47.383Z,10.00
2018-12-08T06:49:50.751Z,10.00
2018-12-08T06:50:54.146Z,10.00
2018-12-08T06:51:57.554Z,10.00
2018-12-08T06:53:02.459Z,10.00
2018-12-08T06:54:05.954Z,10.00
2018-12-08T06:55:09.395Z,10.00
2018-12-08T06:56:12.812Z,10.00
2018-12-08T06:57:16.306Z,10.00
2018-12-08T06:58:19.711Z,10.00
2018-12-08T06:59:23.097Z,10.00
2018-12-08T07:00:26.514Z,10.00
2018-12-08T07:01:29.978Z,10.00
2018-12-08T07:02:33.351Z,10.00
2018-12-08T07:03:36.833Z,10.00
2018-12-08T07:04:40.386Z,10.00
2018-12-08T07:05:43.810Z,9.90
2018-12-08T07:06:47.248Z,10.00
2018-12-08T07:07:50.662Z,9.90
2018-12-08T07:08:54.139Z,9.90
2018-12-08T07:09:57.593Z,9.90
2018-12-08T07:11:00.990Z,9.90
2018-12-08T07:12:04.418Z,9.90
2018-12-08T07:13:07.807Z,9.90
2018-12-08T07:14:11.210Z,9.90
2018-12-08T07:15:15.007Z,9.90
2018-12-08T07:16:20.807Z,9.90
2018-12-08T07:17:24.371Z,9.90
2018-12-08T07:18:27.848Z,9.90
2018-12-08T07:19:31.292Z,9.80
2018-12-08T07:20:34.727Z,9.80
2018-12-08T07:21:38.189Z,9.80
2018-12-08T07:22:41.723Z,9.80
2018-12-08T07:23:45.350Z,9.80
2018-12-08T07:24:48.735Z,9.80
2018-12-08T07:25:52.149Z,9.80
2018-12-08T07:26:55.567Z,9.80
2018-12-08T07:27:58.955Z,9.80
2018-12-08T07:29:02.343Z,9.80
2018-12-08T07:30:08.530Z,9.80
2018-12-08T07:31:11.930Z,9.80
2018-12-08T07:32:15.339Z,9.80
2018-12-08T07:33:18.807Z,9.80
2018-12-08T07:34:22.249Z,9.80
2018-12-08T07:35:25.690Z,9.80
2018-12-08T07:36:29.122Z,9.80
2018-12-08T07:37:32.522Z,9.90
2018-12-08T07:38:35.978Z,9.90
2018-12-08T07:39:39.371Z,9.90
2018-12-08T07:40:42.776Z,9.80
2018-12-08T07:41:46.154Z,9.80
2018-12-08T07:42:49.650Z,9.70
2018-12-08T07:43:53.112Z,9.70
2018-12-08T07:44:56.517Z,9.70
2018-12-08T07:45:59.938Z,9.60
2018-12-08T07:47:03.460Z,9.60
2018-12-08T07:48:06.863Z,9.60
2018-12-08T07:49:10.364Z,9.60
2018-12-08T07:50:13.865Z,9.60
2018-12-08T07:51:17.245Z,9.60
2018-12-08T07:52:20.630Z,9.60
2018-12-08T07:53:24.138Z,9.50
2018-12-08T07:54:27.546Z,9.60
2018-12-08T07:55:30.960Z,9.50
2018-12-08T07:56:34.396Z,9.50
2018-12-08T07:57:37.799Z,9.50
2018-12-08T07:58:41.196Z,9.60
2018-12-08T07:59:44.591Z,9.60
2018-12-08T08:00:48.010Z,9.60
2018-12-08T08:01:51.464Z,9.60
2018-12-08T08:02:54.873Z,9.70
2018-12-08T08:03:58.265Z,9.70
2018-12-08T08:05:01.669Z,9.70
2018-12-08T08:06:05.294Z,9.70
2018-12-08T08:07:08.722Z,9.70
2018-12-08T08:08:12.143Z,9.70
2018-12-08T08:09:15.548Z,9.70
2018-12-08T08:10:19.138Z,9.70
2018-12-08T08:11:22.538Z,9.70
2018-12-08T08:12:25.954Z,9.70
2018-12-08T08:13:29.356Z,9.70
2018-12-08T08:14:32.756Z,9.80
2018-12-08T08:15:36.171Z,9.80
2018-12-08T08:16:39.614Z,9.80
2018-12-08T08:17:43.037Z,9.70
2018-12-08T08:18:46.455Z,9.80
2018-12-08T08:19:49.846Z,9.80
2018-12-08T08:20:53.237Z,9.80
2018-12-08T08:21:56.748Z,9.80
2018-12-08T08:23:00.134Z,9.80
2018-12-08T08:24:03.523Z,9.80
2018-12-08T08:25:09.383Z,9.80
2018-12-08T08:26:12.784Z,9.80
2018-12-08T08:27:16.261Z,9.80
2018-12-08T08:28:19.827Z,9.80
2018-12-08T08:29:23.583Z,9.80
2018-12-08T08:30:28.031Z,9.80
2018-12-08T08:31:31.572Z,9.90
2018-12-08T08:32:35.043Z,9.80
2018-12-08T08:33:38.428Z,9.90
2018-12-08T08:34:41.818Z,9.90
2018-12-08T08:35:45.346Z,9.90
2018-12-08T08:36:48.946Z,9.90
2018-12-08T08:37:52.380Z,9.90
2018-12-08T08:38:55.763Z,9.90
2018-12-08T08:39:59.212Z,9.90
2018-12-08T08:41:02.666Z,9.90
2018-12-08T08:42:06.064Z,9.90
2018-12-08T08:43:09.648Z,10.00
2018-12-08T08:44:13.091Z,10.00
2018-12-08T08:45:16.469Z,10.00
2018-12-08T08:46:19.907Z,10.00
2018-12-08T08:47:23.483Z,10.00
2018-12-08T08:48:27.436Z,10.00
2018-12-08T08:49:31.856Z,10.00
2018-12-08T08:50:36.864Z,10.00
2018-12-08T08:51:41.219Z,10.00
2018-12-08T08:52:45.523Z,10.00
2018-12-08T08:53:49.129Z,10.00
2018-12-08T08:54:52.850Z,10.00
2018-12-08T08:55:56.270Z,10.00
2018-12-08T08:56:59.716Z,10.00
2018-12-08T08:58:03.139Z,10.00
2018-12-08T08:59:06.751Z,10.00
2018-12-08T09:00:10.846Z,10.00
2018-12-08T09:01:14.313Z,10.10
2018-12-08T09:02:17.718Z,10.10
2018-12-08T09:03:21.135Z,10.10
2018-12-08T09:04:25.076Z,10.10
2018-12-08T09:05:28.547Z,10.10
2018-12-08T09:06:32.304Z,10.10
2018-12-08T09:07:35.774Z,10.10
2018-12-08T09:08:39.176Z,10.10
2018-12-08T09:09:42.586Z,10.10
2018-12-08T09:10:46.031Z,10.10
2018-12-08T09:11:49.538Z,10.10
2018-12-08T09:12:53.243Z,10.10
2018-12-08T09:13:56.727Z,10.10
2018-12-08T09:15:00.190Z,10.10
2018-12-08T09:16:03.638Z,10.10
2018-12-08T09:17:07.050Z,10.10
2018-12-08T09:18:10.514Z,10.10
2018-12-08T09:19:13.963Z,10.10
2018-12-08T09:20:17.557Z,10.20
2018-12-08T09:21:21.014Z,10.20
2018-12-08T09:22:24.429Z,10.20
2018-12-08T09:23:28.068Z,10.20
2018-12-08T09:24:31.551Z,10.20
2018-12-08T09:25:34.970Z,10.20
2018-12-08T09:26:38.362Z,10.30
2018-12-08T09:27:41.794Z,10.20
2018-12-08T09:28:45.470Z,10.30
2018-12-08T09:29:48.990Z,10.30
2018-12-08T09:30:52.564Z,10.30
2018-12-08T09:31:56.174Z,10.30
2018-12-08T09:32:59.633Z,10.30
2018-12-08T09:34:03.085Z,10.30
2018-12-08T09:35:06.526Z,10.40
2018-12-08T09:36:10.006Z,10.40
2018-12-08T09:37:13.492Z,10.40
2018-12-08T09:38:16.893Z,10.40
2018-12-08T09:39:20.314Z,10.40
2018-12-08T09:40:23.726Z,10.40
2018-12-08T09:41:27.161Z,10.40
2018-12-08T09:42:30.711Z,10.40
2018-12-08T09:43:34.225Z,10.40
2018-12-08T09:44:38.014Z,10.40
2018-12-08T09:45:42.060Z,10.40
2018-12-08T09:46:45.866Z,10.40
2018-12-08T09:47:49.325Z,10.40
2018-12-08T09:48:52.878Z,10.40
2018-12-08T09:49:56.388Z,10.40
2018-12-08T09:50:59.802Z,10.40
2018-12-08T09:52:03.272Z,10.30
2018-12-08T09:53:17.286Z,10.40
2018-12-08T09:54:20.675Z,10.40
2018-12-08T09:55:24.093Z,10.40
2018-12-08T09:56:27.533Z,10.30
2018-12-08T09:57:30.946Z,10.30
2018-12-08T09:58:34.329Z,10.30
2018-12-08T09:59:37.819Z,10.30
2018-12-08T10:00:41.390Z,10.30
2018-12-08T10:01:44.835Z,10.30
2018-12-08T10:02:48.287Z,10.30
2018-12-08T10:03:51.707Z,10.30
2018-12-08T10:04:55.105Z,10.30
2018-12-08T10:05:58.500Z,10.30
2018-12-08T10:07:01.941Z,10.30
2018-12-08T10:08:05.518Z,10.30
2018-12-08T10:09:08.914Z,10.30
2018-12-08T10:10:12.294Z,10.30
2018-12-08T10:11:15.703Z,10.30
2018-12-08T10:12:19.135Z,10.30
2018-12-08T10:13:22.533Z,10.30
2018-12-08T10:14:25.963Z,10.40
2018-12-08T10:15:29.470Z,10.30
2018-12-08T10:16:32.910Z,10.40
2018-12-08T10:17:36.349Z,10.30
2018-12-08T10:18:39.951Z,10.40
2018-12-08T10:19:43.434Z,10.40
2018-12-08T10:20:46.950Z,10.40
2018-12-08T10:21:50.374Z,10.40
2018-12-08T10:22:53.949Z,10.40
2018-12-08T10:23:57.414Z,10.40
2018-12-08T10:25:00.807Z,10.40
2018-12-08T10:26:04.229Z,10.40
2018-12-08T10:27:07.618Z,10.40
2018-12-08T10:28:11.060Z,10.40
2018-12-08T10:29:14.524Z,10.50
2018-12-08T10:30:17.990Z,10.50
2018-12-08T10:31:21.409Z,10.50
2018-12-08T10:32:24.873Z,10.50
2018-12-08T10:33:28.367Z,10.50
2018-12-08T10:34:31.865Z,10.50
2018-12-08T10:35:35.843Z,10.50
2018-12-08T10:36:39.289Z,10.50
2018-12-08T10:37:42.840Z,10.50
2018-12-08T10:38:46.235Z,10.50
2018-12-08T10:39:49.666Z,10.50
2018-12-08T10:40:53.040Z,10.50
2018-12-08T10:41:56.506Z,10.50
2018-12-08T10:42:59.947Z,10.50
2018-12-08T10:44:03.435Z,10.50
2018-12-08T10:45:08.424Z,10.50
2018-12-08T10:46:11.887Z,10.50
2018-12-08T10:47:15.268Z,10.50
2018-12-08T10:48:18.740Z,10.50
2018-12-08T10:49:22.152Z,10.50
2018-12-08T10:50:25.574Z,10.50
2018-12-08T10:51:29.086Z,10.50
2018-12-08T10:52:32.519Z,10.60
2018-12-08T10:53:36.174Z,10.60
2018-12-08T10:54:39.586Z,10.50
2018-12-08T10:55:43.019Z,10.60
2018-12-08T10:56:46.426Z,10.60
2018-12-08T10:57:49.965Z,10.70
2018-12-08T10:58:53.385Z,10.70
2018-12-08T10:59:56.808Z,10.70
2018-12-08T11:01:08.714Z,10.80
2018-12-08T11:02:17.535Z,10.80
2018-12-08T11:03:26.962Z,10.80
2018-12-08T11:04:30.681Z,10.80
2018-12-08T11:05:34.073Z,10.80
2018-12-08T11:06:37.653Z,10.90
2018-12-08T11:07:41.189Z,10.80
2018-12-08T11:08:44.656Z,10.80
2018-12-08T11:09:48.094Z,10.90
2018-12-08T11:10:51.497Z,10.90
2018-12-08T11:11:54.943Z,10.90
2018-12-08T11:12:58.346Z,10.90
2018-12-08T11:14:01.816Z,10.90
2018-12-08T11:15:05.794Z,11.00
2018-12-08T11:16:09.215Z,11.00
2018-12-08T11:17:12.668Z,11.00
2018-12-08T11:18:16.046Z,11.00
2018-12-08T11:19:19.479Z,11.00
2018-12-08T11:20:22.994Z,11.10
2018-12-08T11:21:26.451Z,11.10
2018-12-08T11:22:29.854Z,11.10
2018-12-08T11:23:33.293Z,11.20
2018-12-08T11:24:36.682Z,11.20
2018-12-08T11:25:40.370Z,11.20
2018-12-08T11:26:43.781Z,11.20
2018-12-08T11:27:47.220Z,11.20
2018-12-08T11:28:50.639Z,11.20
2018-12-08T11:29:54.025Z,11.20
2018-12-08T11:30:57.423Z,11.20
2018-12-08T11:32:00.834Z,11.20
2018-12-08T11:33:04.260Z,11.20
2018-12-08T11:34:07.683Z,11.20
2018-12-08T11:35:11.078Z,11.20
2018-12-08T11:36:14.533Z,11.20
2018-12-08T11:37:17.915Z,11.20
2018-12-08T11:38:21.311Z,11.20
2018-12-08T11:39:24.753Z,11.20
2018-12-08T11:40:28.149Z,11.20
2018-12-08T11:41:31.561Z,11.20
2018-12-08T11:42:34.968Z,11.20
2018-12-08T11:43:38.391Z,11.20
2018-12-08T11:44:42.110Z,11.20
2018-12-08T11:45:45.518Z,11.20
2018-12-08T11:46:49.146Z,11.20
2018-12-08T11:47:52.529Z,11.20
2018-12-08T11:48:56.207Z,11.20
2018-12-08T11:49:59.699Z,11.20
2018-12-08T11:51:03.179Z,11.20
2018-12-08T11:52:06.610Z,11.20
2018-12-08T11:53:10.041Z,11.20
2018-12-08T11:54:13.434Z,11.20
2018-12-08T11:55:16.830Z,11.10
2018-12-08T11:56:20.234Z,11.20
2018-12-08T11:57:23.683Z,11.20
2018-12-08T11:58:27.157Z,11.20
2018-12-08T11:59:30.623Z,11.20
2018-12-08T12:00:34.144Z,11.20
2018-12-08T12:01:37.530Z,11.20
2018-12-08T12:02:40.963Z,11.10
2018-12-08T12:03:44.359Z,11.10
2018-12-08T12:04:47.772Z,11.10
2018-12-08T12:05:51.270Z,11.10
2018-12-08T12:06:54.766Z,11.10
2018-12-08T12:07:58.307Z,11.10
2018-12-08T12:09:01.844Z,11.10
2018-12-08T12:10:05.305Z,11.10
2018-12-08T12:11:08.735Z,11.10
2018-12-08T12:12:12.159Z,11.10
2018-12-08T12:13:15.655Z,11.10
2018-12-08T12:14:19.237Z,11.10
2018-12-08T12:15:22.899Z,11.10
2018-12-08T12:16:26.298Z,11.10
2018-12-08T12:17:29.716Z,11.10
2018-12-08T12:18:33.209Z,11.10
2018-12-08T12:19:36.600Z,11.10
2018-12-08T12:20:39.994Z,11.10
2018-12-08T12:21:43.605Z,11.10
2018-12-08T12:22:47.005Z,11.10
2018-12-08T12:23:50.386Z,11.10
2018-12-08T12:24:53.801Z,11.10
2018-12-08T12:25:57.210Z,11.10
2018-12-08T12:27:00.574Z,11.10
2018-12-08T12:28:04.277Z,11.10
2018-12-08T12:29:07.740Z,11.10
2018-12-08T12:30:11.136Z,11.10
2018-12-08T12:31:14.537Z,11.10
2018-12-08T12:32:17.971Z,11.10
2018-12-08T12:33:21.434Z,11.10
2018-12-08T12:34:25.342Z,11.10
2018-12-08T12:35:28.825Z,11.10
2018-12-08T12:36:32.306Z,11.10
2018-12-08T12:37:35.731Z,11.10
2018-12-08T12:38:39.160Z,11.10
2018-12-08T12:39:42.574Z,11.10
2018-12-08T12:40:46.081Z,11.10
2018-12-08T12:41:49.497Z,11.00
2018-12-08T12:42:53.098Z,11.00
2018-12-08T12:43:56.479Z,11.00
2018-12-08T12:44:59.862Z,11.00
2018-12-08T12:46:03.258Z,11.00
2018-12-08T12:47:06.786Z,11.00
2018-12-08T12:48:10.448Z,11.00
2018-12-08T12:49:13.831Z,11.00
2018-12-08T12:50:17.240Z,11.00
2018-12-08T12:51:20.689Z,11.00
2018-12-08T12:52:24.144Z,11.00
2018-12-08T12:53:27.526Z,11.00
2018-12-08T12:54:31.143Z,11.00
2018-12-08T12:55:34.570Z,11.00
2018-12-08T12:56:37.980Z,11.00
2018-12-08T12:57:41.419Z,11.00
2018-12-08T12:58:44.817Z,11.00
2018-12-08T12:59:48.213Z,11.10
2018-12-08T13:00:51.625Z,11.10
2018-12-08T13:01:55.313Z,11.10
2018-12-08T13:02:58.871Z,11.10
2018-12-08T13:04:02.290Z,11.10
2018-12-08T13:05:05.723Z,11.10
2018-12-08T13:06:09.114Z,11.10
2018-12-08T13:07:12.542Z,11.20
2018-12-08T13:08:15.964Z,11.20
2018-12-08T13:09:19.374Z,11.20
2018-12-08T13:10:22.823Z,11.20
2018-12-08T13:11:26.210Z,11.20
2018-12-08T13:12:29.629Z,11.30
2018-12-08T13:13:33.042Z,11.30
2018-12-08T13:14:36.487Z,11.30
2018-12-08T13:15:40.030Z,11.30
2018-12-08T13:16:43.510Z,11.30
2018-12-08T13:17:46.918Z,11.30
2018-12-08T13:18:50.473Z,11.30
2018-12-08T13:19:53.874Z,11.30
2018-12-08T13:20:57.370Z,11.30
2018-12-08T13:22:00.802Z,11.40
2018-12-08T13:23:04.190Z,11.40
2018-12-08T13:24:07.595Z,11.30
2018-12-08T13:25:21.909Z,11.30
2018-12-08T13:26:25.331Z,11.30
2018-12-08T13:27:28.722Z,11.30
2018-12-08T13:28:32.171Z,11.30
2018-12-08T13:29:35.597Z,11.30
2018-12-08T13:30:38.991Z,11.40
2018-12-08T13:31:42.739Z,11.30
2018-12-08T13:32:46.136Z,11.30
2018-12-08T13:33:51.776Z,11.40
2018-12-08T13:34:55.181Z,11.40
2018-12-08T13:36:01.127Z,11.40
2018-12-08T13:37:04.737Z,11.40
2018-12-08T13:38:08.175Z,11.40
2018-12-08T13:39:11.570Z,11.40
2018-12-08T13:40:15.027Z,11.40
2018-12-08T13:41:18.462Z,11.40
2018-12-08T13:42:21.915Z,11.40
2018-12-08T13:43:25.318Z,11.40
2018-12-08T13:44:37.388Z,11.40
2018-12-08T13:45:40.845Z,11.40
2018-12-08T13:46:44.237Z,11.40
2018-12-08T13:47:47.639Z,11.40
2018-12-08T13:48:51.183Z,11.30
2018-12-08T13:49:54.586Z,11.30
2018-12-08T13:50:58.205Z,11.40